Time;durP1;ratioP1;P1;durP2;ratioP2;P2;SDS_P1;SDS_P2;PMS_P1;PMS_P2;Temp;Humidity;BMP_temperature;BMP_pressure;BME280_temperature;BME280_humidity;BME280_pressure;Samples;Min_cycle;Max_cycle;Signal;HPM_P1;HPM_P2
2023/06/13 00:01:48;;;;;;;91.45;21.38;;;;;;;;;;5070929;28;20028;-42
2023/06/13 00:04:21;;;;;;;97.57;22.63;;;;;;;;;;5062607;28;20032;-42
2023/06/13 00:06:53;;;;;;;97.68;24.40;;;;;;;;;;5063317;28;20054;-42
2023/06/13 00:09:20;;;;;;;94.57;24.65;;;;;;;;;;5062072;28;20044;-41
2023/06/13 00:11:49;;;;;;;82.88;25.73;;;;;;;;;;5054779;28;20189;-41
2023/06/13 00:14:17;;;;;;;110.75;32.00;;;;;;;;;;5059752;28;20040;-42
2023/06/13 00:16:44;;;;;;;103.05;33.40;;;;;;;;;;5058096;28;20025;-43
2023/06/13 00:19:12;;;;;;;88.57;32.38;;;;;;;;;;5055044;28;20032;-42
2023/06/13 00:21:40;;;;;;;94.68;32.33;;;;;;;;;;5065403;28;20028;-41
2023/06/13 00:24:07;;;;;;;99.53;32.40;;;;;;;;;;5054943;28;20028;-41
2023/06/13 00:26:34;;;;;;;94.93;31.73;;;;;;;;;;5051930;28;20024;-41
2023/06/13 00:29:02;;;;;;;95.82;33.05;;;;;;;;;;5057999;28;20074;-41
2023/06/13 00:31:29;;;;;;;91.55;32.38;;;;;;;;;;5066956;28;20118;-41
2023/06/13 00:34:00;;;;;;;99.13;32.47;;;;;;;;;;5065572;28;20046;-41
2023/06/13 00:36:27;;;;;;;98.85;31.42;;;;;;;;;;5064246;28;20024;-40
2023/06/13 00:38:56;;;;;;;108.10;32.17;;;;;;;;;;5068829;28;20028;-41
2023/06/13 00:41:23;;;;;;;92.63;29.25;;;;;;;;;;5071689;28;20100;-43
2023/06/13 00:43:50;;;;;;;100.82;31.15;;;;;;;;;;5070381;28;20105;-41
2023/06/13 00:46:28;;;;;;;111.25;29.27;;;;;;;;;;5070576;28;20031;-41
2023/06/13 00:48:57;;;;;;;104.05;29.48;;;;;;;;;;5061485;28;20048;-40
2023/06/13 00:51:27;;;;;;;117.43;29.50;;;;;;;;;;5070259;28;20351;-42
2023/06/13 00:53:55;;;;;;;102.38;27.90;;;;;;;;;;5069240;28;20405;-42
2023/06/13 00:56:28;;;;;;;86.57;27.25;;;;;;;;;;5066562;28;20029;-41
2023/06/13 00:58:58;;;;;;;84.63;25.15;;;;;;;;;;5068162;28;20050;-40
2023/06/13 01:01:27;;;;;;;88.50;25.13;;;;;;;;;;5067978;28;20039;-41
2023/06/13 01:03:55;;;;;;;98.28;25.83;;;;;;;;;;5065250;28;20079;-40
2023/06/13 01:06:24;;;;;;;99.50;25.30;;;;;;;;;;5042610;28;20119;-41
2023/06/13 01:08:58;;;;;;;84.40;23.63;;;;;;;;;;5050970;28;20039;-40
2023/06/13 01:11:40;;;;;;;93.85;23.80;;;;;;;;;;5051170;28;20029;-41
2023/06/13 01:14:14;;;;;;;84.95;23.17;;;;;;;;;;5059965;28;20047;-41
2023/06/13 01:16:48;;;;;;;86.32;22.60;;;;;;;;;;5071048;28;20036;-40
2023/06/13 01:19:37;;;;;;;89.15;22.10;;;;;;;;;;5070914;28;20028;-40
2023/06/13 01:22:24;;;;;;;85.18;21.75;;;;;;;;;;5070877;28;20020;-41
2023/06/13 01:24:53;;;;;;;83.88;20.10;;;;;;;;;;5070521;28;20043;-41
2023/06/13 01:27:22;;;;;;;89.78;21.27;;;;;;;;;;5059275;28;20553;-40
2023/06/13 01:29:49;;;;;;;95.35;20.95;;;;;;;;;;5069640;28;20377;-41
2023/06/13 01:32:17;;;;;;;78.47;19.27;;;;;;;;;;5070337;28;20055;-41
2023/06/13 01:34:45;;;;;;;86.30;20.27;;;;;;;;;;5063909;28;20530;-40
2023/06/13 01:37:12;;;;;;;84.38;19.73;;;;;;;;;;5062066;28;20063;-41
2023/06/13 01:39:39;;;;;;;76.55;17.75;;;;;;;;;;5069284;28;20509;-41
2023/06/13 01:42:06;;;;;;;77.07;17.70;;;;;;;;;;5071227;28;20394;-40
2023/06/13 01:44:34;;;;;;;75.07;18.58;;;;;;;;;;5070390;28;20029;-40
2023/06/13 01:47:17;;;;;;;69.13;17.10;;;;;;;;;;5065635;28;20032;-41
2023/06/13 01:50:08;;;;;;;68.80;16.92;;;;;;;;;;5060126;28;20362;-41
2023/06/13 01:52:59;;;;;;;90.43;19.10;;;;;;;;;;5060263;28;20091;-40
2023/06/13 01:55:30;;;;;;;85.57;17.38;;;;;;;;;;5057657;28;20415;-40
2023/06/13 01:58:12;;;;;;;82.63;17.63;;;;;;;;;;5060492;28;20031;-41
2023/06/13 02:00:40;;;;;;;68.43;17.08;;;;;;;;;;5060601;28;20068;-40
2023/06/13 02:03:07;;;;;;;79.07;18.25;;;;;;;;;;5043006;28;20027;-41
2023/06/13 02:05:35;;;;;;;73.47;17.52;;;;;;;;;;5059901;28;20021;-41
2023/06/13 02:08:02;;;;;;;70.30;17.35;;;;;;;;;;5059692;28;20583;-40
2023/06/13 02:10:29;;;;;;;73.43;16.27;;;;;;;;;;5043727;28;20028;-41
2023/06/13 02:12:56;;;;;;;68.72;16.95;;;;;;;;;;5064129;28;20029;-41
2023/06/13 02:15:23;;;;;;;79.75;16.90;;;;;;;;;;5063302;28;20052;-40
2023/06/13 02:17:50;;;;;;;60.20;15.07;;;;;;;;;;5063035;28;20441;-40
2023/06/13 02:20:18;;;;;;;68.57;15.68;;;;;;;;;;5063353;28;20438;-41
2023/06/13 02:22:45;;;;;;;66.32;16.33;;;;;;;;;;5061849;28;20123;-41
2023/06/13 02:25:12;;;;;;;63.42;14.93;;;;;;;;;;5059834;28;20111;-40
2023/06/13 02:27:39;;;;;;;60.83;15.63;;;;;;;;;;5063939;28;20024;-40
2023/06/13 02:30:08;;;;;;;67.47;15.45;;;;;;;;;;5062649;28;20029;-42
2023/06/13 02:32:39;;;;;;;66.15;15.32;;;;;;;;;;5064279;28;20511;-40
2023/06/13 02:35:08;;;;;;;62.47;13.82;;;;;;;;;;5064687;28;20029;-41
2023/06/13 02:37:35;;;;;;;62.47;14.30;;;;;;;;;;5063269;28;20035;-40
2023/06/13 02:40:05;;;;;;;61.50;14.82;;;;;;;;;;5050759;28;20032;-41
2023/06/13 02:42:32;;;;;;;57.47;14.05;;;;;;;;;;5074371;28;20020;-41
2023/06/13 02:44:59;;;;;;;60.78;14.63;;;;;;;;;;5074250;28;20016;-40
2023/06/13 02:47:27;;;;;;;56.63;14.32;;;;;;;;;;5074336;28;20108;-41
2023/06/13 02:49:54;;;;;;;53.83;14.15;;;;;;;;;;5074220;28;20029;-42
2023/06/13 02:52:21;;;;;;;54.42;13.35;;;;;;;;;;5074268;28;20025;-41
2023/06/13 02:54:49;;;;;;;53.08;13.38;;;;;;;;;;5074120;28;20029;-41
2023/06/13 02:57:16;;;;;;;57.70;13.70;;;;;;;;;;5074083;28;20024;-40
2023/06/13 02:59:43;;;;;;;56.22;13.55;;;;;;;;;;5074060;28;20054;-41
2023/06/13 03:02:10;;;;;;;52.97;13.40;;;;;;;;;;5074126;28;20028;-41
2023/06/13 03:04:38;;;;;;;52.70;12.70;;;;;;;;;;5074006;28;20024;-41
2023/06/13 03:07:06;;;;;;;53.97;13.85;;;;;;;;;;5073769;28;20028;-41
2023/06/13 03:09:33;;;;;;;49.60;12.48;;;;;;;;;;5073972;28;20063;-41
2023/06/13 03:12:00;;;;;;;55.15;13.07;;;;;;;;;;5073923;28;20047;-40
2023/06/13 03:14:28;;;;;;;42.22;12.10;;;;;;;;;;5073948;28;20123;-40
2023/06/13 03:16:55;;;;;;;48.58;12.38;;;;;;;;;;5073904;28;20486;-40
2023/06/13 03:19:22;;;;;;;49.30;13.18;;;;;;;;;;5073600;28;20050;-41
2023/06/13 03:21:49;;;;;;;41.53;11.57;;;;;;;;;;5073459;28;20025;-42
2023/06/13 03:24:17;;;;;;;49.45;11.70;;;;;;;;;;5073723;28;20095;-41
2023/06/13 03:26:45;;;;;;;45.88;11.52;;;;;;;;;;5073366;28;20037;-41
2023/06/13 03:29:12;;;;;;;52.05;11.55;;;;;;;;;;5073575;28;20028;-41
2023/06/13 03:31:39;;;;;;;41.85;11.10;;;;;;;;;;5073367;28;20579;-41
2023/06/13 03:34:07;;;;;;;38.42;10.35;;;;;;;;;;5073587;28;20044;-41
2023/06/13 03:36:34;;;;;;;47.13;11.40;;;;;;;;;;5073412;28;20022;-40
2023/06/13 03:39:02;;;;;;;41.47;11.77;;;;;;;;;;5073256;28;20025;-41
2023/06/13 03:41:29;;;;;;;41.78;10.55;;;;;;;;;;5073223;28;20079;-41
2023/06/13 03:43:56;;;;;;;41.78;11.27;;;;;;;;;;5073398;28;20044;-41
2023/06/13 03:46:23;;;;;;;39.00;10.68;;;;;;;;;;5073296;28;20478;-41
2023/06/13 03:48:51;;;;;;;40.45;10.63;;;;;;;;;;5073153;28;20036;-42
2023/06/13 03:51:18;;;;;;;46.83;10.95;;;;;;;;;;5073034;28;20032;-41
2023/06/13 03:53:45;;;;;;;37.88;10.85;;;;;;;;;;5073092;28;20440;-41
2023/06/13 03:56:13;;;;;;;35.45;9.88;;;;;;;;;;5073103;28;20048;-41
2023/06/13 03:58:40;;;;;;;38.10;10.05;;;;;;;;;;5072647;28;20044;-41
2023/06/13 04:01:08;;;;;;;37.65;10.43;;;;;;;;;;5072823;28;20017;-41
2023/06/13 04:03:39;;;;;;;40.15;10.48;;;;;;;;;;5072835;28;20075;-43
2023/06/13 04:06:07;;;;;;;33.47;9.05;;;;;;;;;;5072742;28;20103;-40
2023/06/13 04:08:36;;;;;;;39.92;10.50;;;;;;;;;;5072764;28;20070;-40
2023/06/13 04:11:03;;;;;;;34.17;9.07;;;;;;;;;;5072631;28;20028;-41
2023/06/13 04:13:30;;;;;;;31.30;8.70;;;;;;;;;;5072720;28;20096;-40
2023/06/13 04:15:57;;;;;;;30.77;8.38;;;;;;;;;;5072486;28;20028;-40
2023/06/13 04:18:24;;;;;;;34.45;9.77;;;;;;;;;;5072456;28;20017;-40
2023/06/13 04:20:52;;;;;;;28.98;7.90;;;;;;;;;;5072571;28;20020;-40
2023/06/13 04:23:21;;;;;;;32.80;8.32;;;;;;;;;;5072440;28;20067;-40
2023/06/13 04:25:48;;;;;;;30.08;7.97;;;;;;;;;;5072254;28;20032;-40
2023/06/13 04:28:15;;;;;;;30.20;8.43;;;;;;;;;;5072083;28;20429;-40
2023/06/13 04:30:46;;;;;;;27.55;7.65;;;;;;;;;;5072229;28;20055;-40
2023/06/13 04:33:17;;;;;;;33.80;8.73;;;;;;;;;;5071566;28;20020;-40
2023/06/13 04:35:46;;;;;;;28.27;8.02;;;;;;;;;;5072403;28;20033;-40
2023/06/13 04:38:13;;;;;;;33.40;8.27;;;;;;;;;;5071957;28;20107;-40
2023/06/13 04:40:41;;;;;;;23.20;7.40;;;;;;;;;;5072181;28;20024;-41
2023/06/13 04:43:09;;;;;;;26.17;7.32;;;;;;;;;;5072145;28;20027;-40
2023/06/13 04:45:36;;;;;;;25.75;6.90;;;;;;;;;;5072250;28;20081;-40
2023/06/13 04:48:03;;;;;;;27.50;6.95;;;;;;;;;;5071962;28;20024;-40
2023/06/13 04:50:31;;;;;;;20.95;6.78;;;;;;;;;;5072021;28;20029;-40
2023/06/13 04:52:58;;;;;;;19.58;6.85;;;;;;;;;;5072062;28;20028;-40
2023/06/13 04:55:29;;;;;;;24.98;6.43;;;;;;;;;;5071966;28;20077;-40
2023/06/13 04:57:56;;;;;;;23.48;6.47;;;;;;;;;;5071693;28;20052;-41
2023/06/13 05:00:24;;;;;;;22.35;6.38;;;;;;;;;;5071815;28;20486;-40
2023/06/13 05:02:52;;;;;;;22.58;6.45;;;;;;;;;;5071825;28;20422;-40
2023/06/13 05:05:20;;;;;;;23.63;6.43;;;;;;;;;;5071865;28;20052;-40
2023/06/13 05:07:47;;;;;;;18.27;5.43;;;;;;;;;;5071612;28;20534;-40
2023/06/13 05:10:14;;;;;;;20.13;6.38;;;;;;;;;;5071749;28;20020;-40
2023/06/13 05:12:41;;;;;;;18.17;5.38;;;;;;;;;;5071842;28;20051;-40
2023/06/13 05:15:09;;;;;;;19.50;5.85;;;;;;;;;;5071679;28;20028;-40
2023/06/13 05:17:37;;;;;;;17.45;6.10;;;;;;;;;;5071618;28;20029;-40
2023/06/13 05:20:05;;;;;;;17.58;5.75;;;;;;;;;;5071412;28;20094;-40
2023/06/13 05:22:32;;;;;;;21.98;5.97;;;;;;;;;;5071818;28;20033;-40
2023/06/13 05:24:59;;;;;;;18.00;5.35;;;;;;;;;;5071693;28;20020;-40
2023/06/13 05:27:27;;;;;;;16.75;5.20;;;;;;;;;;5071482;28;20073;-40
2023/06/13 05:29:55;;;;;;;15.38;5.03;;;;;;;;;;5071385;28;20021;-41
2023/06/13 05:32:22;;;;;;;15.43;5.13;;;;;;;;;;5071334;28;20044;-40
2023/06/13 05:34:49;;;;;;;16.40;4.97;;;;;;;;;;5071515;28;20031;-40
2023/06/13 05:37:17;;;;;;;17.98;5.07;;;;;;;;;;5071373;28;20017;-40
2023/06/13 05:39:44;;;;;;;14.15;4.88;;;;;;;;;;5071525;28;20071;-40
2023/06/13 05:42:11;;;;;;;13.13;4.80;;;;;;;;;;5071501;28;20075;-40
2023/06/13 05:44:38;;;;;;;17.95;4.47;;;;;;;;;;5072006;28;20100;-40
2023/06/13 05:47:06;;;;;;;15.95;4.65;;;;;;;;;;5075472;28;20067;-41
2023/06/13 05:49:32;;;;;;;12.73;4.55;;;;;;;;;;5075491;28;20099;-40
2023/06/13 05:52:00;;;;;;;10.93;4.32;;;;;;;;;;5075412;28;20048;-40
2023/06/13 05:54:27;;;;;;;16.05;4.97;;;;;;;;;;5075472;28;20471;-40
2023/06/13 05:56:54;;;;;;;15.07;4.20;;;;;;;;;;5075229;28;20064;-40
2023/06/13 05:59:21;;;;;;;16.13;4.30;;;;;;;;;;5075201;28;20036;-40
2023/06/13 06:01:48;;;;;;;11.88;4.00;;;;;;;;;;5074078;28;20039;-41
2023/06/13 06:04:15;;;;;;;14.10;4.15;;;;;;;;;;5075166;28;20101;-41
2023/06/13 06:06:42;;;;;;;15.90;4.90;;;;;;;;;;5075091;28;20017;-40
2023/06/13 06:09:09;;;;;;;15.15;4.22;;;;;;;;;;5075092;28;20028;-40
2023/06/13 06:11:36;;;;;;;9.90;3.75;;;;;;;;;;5075072;28;20016;-41
2023/06/13 06:14:03;;;;;;;10.68;3.75;;;;;;;;;;5075041;28;20099;-40
2023/06/13 06:16:31;;;;;;;10.80;4.00;;;;;;;;;;5074903;28;20028;-40
2023/06/13 06:18:58;;;;;;;19.35;4.00;;;;;;;;;;5074881;28;20038;-41
2023/06/13 06:21:25;;;;;;;10.48;3.47;;;;;;;;;;5074803;28;20032;-41
2023/06/13 06:23:52;;;;;;;10.80;3.75;;;;;;;;;;5074890;28;20024;-41
2023/06/13 06:26:19;;;;;;;8.52;3.08;;;;;;;;;;5074668;28;20021;-41
2023/06/13 06:28:45;;;;;;;9.57;3.22;;;;;;;;;;5074722;28;20035;-41
2023/06/13 06:31:12;;;;;;;9.38;3.28;;;;;;;;;;5074514;28;20156;-40
2023/06/13 06:33:40;;;;;;;11.00;3.45;;;;;;;;;;5074618;28;20032;-41
2023/06/13 06:36:07;;;;;;;8.38;3.17;;;;;;;;;;5074493;28;20060;-40
2023/06/13 06:38:34;;;;;;;11.07;3.53;;;;;;;;;;5074285;28;20106;-41
2023/06/13 06:41:01;;;;;;;11.30;3.55;;;;;;;;;;5074494;28;20016;-41
2023/06/13 06:43:28;;;;;;;11.95;3.30;;;;;;;;;;5074483;28;20024;-40
2023/06/13 06:45:55;;;;;;;11.75;3.35;;;;;;;;;;5074471;28;20104;-41
2023/06/13 06:48:22;;;;;;;8.40;2.83;;;;;;;;;;5074329;28;20025;-40
2023/06/13 06:50:49;;;;;;;6.97;2.47;;;;;;;;;;5074352;28;20028;-41
2023/06/13 06:53:16;;;;;;;8.55;2.90;;;;;;;;;;5074342;28;20020;-41
2023/06/13 06:55:43;;;;;;;9.45;2.90;;;;;;;;;;5074273;28;20025;-41
2023/06/13 06:58:10;;;;;;;7.88;2.70;;;;;;;;;;5073421;28;20086;-41
2023/06/13 07:00:37;;;;;;;6.97;2.70;;;;;;;;;;5074073;28;20474;-41
2023/06/13 07:03:06;;;;;;;6.68;2.38;;;;;;;;;;5074143;28;20557;-41
2023/06/13 07:05:33;;;;;;;8.40;2.55;;;;;;;;;;5073945;28;20434;-40
2023/06/13 07:08:00;;;;;;;10.43;2.50;;;;;;;;;;5073962;28;20027;-40
2023/06/13 07:10:27;;;;;;;7.35;2.80;;;;;;;;;;5074025;28;20078;-40
2023/06/13 07:12:54;;;;;;;9.68;3.00;;;;;;;;;;5073923;28;20024;-41
2023/06/13 07:15:22;;;;;;;9.00;2.70;;;;;;;;;;5073951;28;20447;-41
2023/06/13 07:17:50;;;;;;;6.03;2.40;;;;;;;;;;5073932;28;20024;-41
2023/06/13 07:20:17;;;;;;;4.88;2.20;;;;;;;;;;5073589;28;20089;-41
2023/06/13 07:22:44;;;;;;;7.03;2.30;;;;;;;;;;5073724;28;20016;-41
2023/06/13 07:25:11;;;;;;;7.43;2.42;;;;;;;;;;5073671;28;20029;-41
2023/06/13 07:27:38;;;;;;;8.60;2.60;;;;;;;;;;5073578;28;20534;-40
2023/06/13 07:30:06;;;;;;;6.05;2.33;;;;;;;;;;5073520;28;20024;-40
2023/06/13 07:35:09;;;;;;;5.65;2.60;;;;;;;;;;5067604;22;20056;-41
2023/06/13 07:37:36;;;;;;;5.00;2.00;;;;;;;;;;5053560;28;20106;-42
2023/06/13 07:40:07;;;;;;;5.57;2.08;;;;;;;;;;5053321;28;20045;-41
2023/06/13 07:42:34;;;;;;;8.52;2.33;;;;;;;;;;5053374;28;20029;-42
2023/06/13 07:45:01;;;;;;;6.22;2.08;;;;;;;;;;5053307;28;20021;-42
2023/06/13 07:47:28;;;;;;;4.47;2.03;;;;;;;;;;5053350;28;20075;-41
2023/06/13 07:49:55;;;;;;;5.97;2.00;;;;;;;;;;5053289;28;20475;-41
2023/06/13 07:52:22;;;;;;;6.35;2.55;;;;;;;;;;5053145;28;20114;-41
2023/06/13 07:54:49;;;;;;;5.68;1.92;;;;;;;;;;5053108;28;20032;-42
2023/06/13 07:57:16;;;;;;;3.67;1.85;;;;;;;;;;5053055;28;20027;-42
2023/06/13 07:59:43;;;;;;;3.35;1.60;;;;;;;;;;5052794;28;20069;-41
2023/06/13 08:02:10;;;;;;;4.28;1.98;;;;;;;;;;5052950;28;20035;-41
2023/06/13 08:04:37;;;;;;;5.72;1.90;;;;;;;;;;5052971;28;20024;-41
2023/06/13 08:07:05;;;;;;;4.45;1.83;;;;;;;;;;5053010;28;20479;-41
2023/06/13 08:09:31;;;;;;;6.50;1.88;;;;;;;;;;5051619;28;20101;-41
2023/06/13 08:11:59;;;;;;;2.58;1.40;;;;;;;;;;5052849;28;20025;-42
2023/06/13 08:14:26;;;;;;;5.40;1.80;;;;;;;;;;5052674;28;20021;-41
2023/06/13 08:16:54;;;;;;;5.03;1.77;;;;;;;;;;5052771;28;20017;-41
2023/06/13 08:19:21;;;;;;;4.93;1.80;;;;;;;;;;5052445;28;20044;-41
2023/06/13 08:21:48;;;;;;;3.50;1.50;;;;;;;;;;5052668;28;20021;-41
2023/06/13 08:24:15;;;;;;;4.63;1.63;;;;;;;;;;5052579;28;20052;-41
2023/06/13 08:26:42;;;;;;;4.57;1.63;;;;;;;;;;5052533;28;20040;-41
2023/06/13 08:29:11;;;;;;;3.30;1.60;;;;;;;;;;5052452;28;20059;-41
2023/06/13 08:31:40;;;;;;;3.15;1.30;;;;;;;;;;5052292;28;20493;-41
2023/06/13 08:34:07;;;;;;;3.13;1.60;;;;;;;;;;5052048;28;20430;-41
2023/06/13 08:36:37;;;;;;;3.63;1.50;;;;;;;;;;5052311;28;20047;-41
2023/06/13 08:39:04;;;;;;;4.05;1.40;;;;;;;;;;5052271;28;20508;-41
2023/06/13 08:41:31;;;;;;;4.45;1.63;;;;;;;;;;5051826;28;20394;-42
2023/06/13 08:43:59;;;;;;;3.30;1.15;;;;;;;;;;5052146;28;20468;-41
2023/06/13 08:46:26;;;;;;;2.33;1.30;;;;;;;;;;5052104;28;20037;-41
2023/06/13 08:48:53;;;;;;;3.47;1.10;;;;;;;;;;5052197;28;20074;-41
2023/06/13 08:51:22;;;;;;;3.15;1.42;;;;;;;;;;5052066;28;20482;-41
2023/06/13 08:53:51;;;;;;;2.95;1.30;;;;;;;;;;5051935;28;20070;-42
2023/06/13 08:56:22;;;;;;;3.20;1.58;;;;;;;;;;5052060;28;20102;-41
2023/06/13 08:58:52;;;;;;;2.03;1.20;;;;;;;;;;5051877;28;20033;-41
2023/06/13 09:01:19;;;;;;;3.17;1.20;;;;;;;;;;5051957;28;20029;-43
2023/06/13 09:03:47;;;;;;;2.15;0.88;;;;;;;;;;5051868;28;20025;-44
2023/06/13 09:06:14;;;;;;;3.47;1.30;;;;;;;;;;5051942;28;20100;-44
2023/06/13 09:08:42;;;;;;;3.05;1.30;;;;;;;;;;5051588;28;20037;-43
2023/06/13 09:11:09;;;;;;;3.25;1.30;;;;;;;;;;5051798;28;20074;-43
2023/06/13 09:13:37;;;;;;;2.25;1.20;;;;;;;;;;5051713;28;20021;-43
2023/06/13 09:16:04;;;;;;;2.08;1.00;;;;;;;;;;5051698;28;20041;-44
2023/06/13 09:18:38;;;;;;;2.53;1.30;;;;;;;;;;5051581;28;20142;-43
2023/06/13 09:21:05;;;;;;;1.95;1.00;;;;;;;;;;5051435;28;20025;-43
2023/06/13 09:23:33;;;;;;;2.70;0.90;;;;;;;;;;5051425;28;20033;-43
2023/06/13 09:26:00;;;;;;;5.47;1.23;;;;;;;;;;5051664;28;20044;-44
2023/06/13 09:28:27;;;;;;;3.28;1.40;;;;;;;;;;5033597;28;20099;-43
2023/06/13 09:30:56;;;;;;;4.35;1.17;;;;;;;;;;5050358;28;20021;-43
2023/06/13 09:33:27;;;;;;;3.00;0.98;;;;;;;;;;5049920;28;20502;-43
2023/06/13 09:35:54;;;;;;;3.25;1.17;;;;;;;;;;5050842;28;20060;-44
2023/06/13 09:38:25;;;;;;;2.05;1.02;;;;;;;;;;5050875;28;20090;-44
2023/06/13 09:40:58;;;;;;;2.75;1.15;;;;;;;;;;5050887;28;20032;-43
2023/06/13 09:43:25;;;;;;;2.15;0.90;;;;;;;;;;5050625;28;20031;-43
2023/06/13 09:45:53;;;;;;;2.15;1.00;;;;;;;;;;5051043;28;20549;-44
2023/06/13 09:48:21;;;;;;;3.13;1.23;;;;;;;;;;5051303;28;20037;-44
2023/06/13 09:50:50;;;;;;;4.82;1.00;;;;;;;;;;5051103;28;20103;-44
2023/06/13 09:53:17;;;;;;;3.25;1.00;;;;;;;;;;5051129;28;20041;-43
2023/06/13 09:55:44;;;;;;;6.07;1.30;;;;;;;;;;5051274;28;20075;-43
2023/06/13 09:58:11;;;;;;;4.95;1.15;;;;;;;;;;5051378;28;20021;-45
2023/06/13 10:00:38;;;;;;;3.55;1.17;;;;;;;;;;5051162;28;20094;-44
2023/06/13 10:03:06;;;;;;;2.95;1.00;;;;;;;;;;5051208;28;20116;-43
2023/06/13 10:05:33;;;;;;;5.53;1.23;;;;;;;;;;5051220;28;20041;-44
2023/06/13 10:08:00;;;;;;;3.42;1.00;;;;;;;;;;5050558;28;20433;-43
2023/06/13 10:10:27;;;;;;;1.80;0.82;;;;;;;;;;5050681;28;20111;-43
2023/06/13 10:12:57;;;;;;;3.55;1.00;;;;;;;;;;5049947;28;20025;-43
2023/06/13 10:15:34;;;;;;;3.35;1.00;;;;;;;;;;5051166;28;20458;-43
2023/06/13 10:18:06;;;;;;;5.88;1.00;;;;;;;;;;5038683;28;20065;-43
2023/06/13 10:20:33;;;;;;;;;;;;;;;;;;5043104;28;20044;-43
2023/06/13 10:23:00;;;;;;;3.22;1.13;;;;;;;;;;5036806;28;20004;-43
2023/06/13 10:25:27;;;;;;;2.78;0.90;;;;;;;;;;5050764;28;20460;-43
2023/06/13 10:27:56;;;;;;;5.32;0.95;;;;;;;;;;5050648;28;20079;-43
2023/06/13 10:30:27;;;;;;;4.70;1.40;;;;;;;;;;5050621;28;20029;-46
2023/06/13 10:33:00;;;;;;;7.60;1.35;;;;;;;;;;5052826;28;20041;-44
2023/06/13 10:35:44;;;;;;;5.68;1.10;;;;;;;;;;5046699;28;20056;-43
2023/06/13 10:38:22;;;;;;;17.92;2.17;;;;;;;;;;5037434;28;20040;-43
2023/06/13 10:40:49;;;;;;;7.15;1.15;;;;;;;;;;5036333;28;20044;-43
2023/06/13 10:43:25;;;;;;;6.68;1.30;;;;;;;;;;5054389;28;20548;-43
2023/06/13 10:45:53;;;;;;;4.32;1.20;;;;;;;;;;5054492;28;20021;-43
2023/06/13 10:48:38;;;;;;;3.90;1.08;;;;;;;;;;5054402;28;20033;-44
2023/06/13 10:51:09;;;;;;;6.38;1.10;;;;;;;;;;5054368;28;20044;-43
2023/06/13 10:53:37;;;;;;;7.20;1.27;;;;;;;;;;5054224;28;20480;-43
2023/06/13 10:56:08;;;;;;;6.32;1.60;;;;;;;;;;5054191;28;20048;-44
2023/06/13 10:58:35;;;;;;;3.50;1.10;;;;;;;;;;5054279;28;20099;-44
2023/06/13 11:01:20;;;;;;;8.27;1.30;;;;;;;;;;5054230;28;20021;-43
2023/06/13 11:03:47;;;;;;;5.15;1.35;;;;;;;;;;5053192;28;20060;-44
2023/06/13 11:06:16;;;;;;;4.00;1.02;;;;;;;;;;5053896;28;20393;-43
2023/06/13 11:08:43;;;;;;;23.65;1.90;;;;;;;;;;5035756;28;20071;-44
2023/06/13 11:11:11;;;;;;;28.25;2.15;;;;;;;;;;5052999;28;20121;-44
2023/06/13 11:13:38;;;;;;;30.85;2.05;;;;;;;;;;5053621;28;20067;-42
2023/06/13 11:16:19;;;;;;;141.50;6.53;;;;;;;;;;5053667;28;20037;-39
2023/06/13 11:18:49;;;;;;;44.72;2.70;;;;;;;;;;5053425;28;20040;-41
2023/06/13 11:21:17;;;;;;;204.05;9.48;;;;;;;;;;5053605;28;20021;-41
2023/06/13 11:23:54;;;;;;;97.10;5.68;;;;;;;;;;5053552;28;20059;-42
2023/06/13 11:26:21;;;;;;;61.92;3.50;;;;;;;;;;5053581;28;20048;-41
2023/06/13 11:28:50;;;;;;;46.13;3.92;;;;;;;;;;5053489;28;20029;-42
2023/06/13 11:31:18;;;;;;;54.50;4.45;;;;;;;;;;5053344;28;20090;-41
2023/06/13 11:33:49;;;;;;;45.20;3.90;;;;;;;;;;5053169;28;20140;-42
2023/06/13 11:36:17;;;;;;;40.70;3.50;;;;;;;;;;5053383;28;20395;-41
2023/06/13 11:38:58;;;;;;;32.35;3.47;;;;;;;;;;5053207;28;20041;-41
2023/06/13 11:41:25;;;;;;;49.58;4.05;;;;;;;;;;5053245;28;20108;-43
2023/06/13 11:43:52;;;;;;;30.80;3.35;;;;;;;;;;5052857;28;20021;-42
2023/06/13 11:46:20;;;;;;;32.65;3.50;;;;;;;;;;5053135;28;20037;-42
2023/06/13 11:48:47;;;;;;;24.45;3.50;;;;;;;;;;5053077;28;20057;-42
2023/06/13 11:51:14;;;;;;;27.88;3.42;;;;;;;;;;5053074;28;20017;-42
2023/06/13 11:53:59;;;;;;;54.65;4.75;;;;;;;;;;5052914;28;20078;-42
2023/06/13 11:56:27;;;;;;;66.85;5.93;;;;;;;;;;5052849;28;20104;-42
2023/06/13 11:58:55;;;;;;;73.90;5.55;;;;;;;;;;5052642;28;20041;-42
2023/06/13 12:01:25;;;;;;;61.80;5.60;;;;;;;;;;5052909;28;20033;-42
2023/06/13 12:03:53;;;;;;;62.15;5.68;;;;;;;;;;5052576;28;20538;-42
2023/06/13 12:06:20;;;;;;;64.28;5.32;;;;;;;;;;5052760;28;20025;-42
2023/06/13 12:08:48;;;;;;;62.35;5.43;;;;;;;;;;5052902;28;20432;-43
2023/06/13 12:11:16;;;;;;;58.13;5.20;;;;;;;;;;5052552;28;20032;-42
2023/06/13 12:13:53;;;;;;;56.47;4.93;;;;;;;;;;5052602;28;20059;-42
2023/06/13 12:16:23;;;;;;;48.47;5.28;;;;;;;;;;5052557;28;20052;-42
2023/06/13 12:18:56;;;;;;;51.22;6.22;;;;;;;;;;5034394;28;20104;-42
2023/06/13 12:21:30;;;;;;;66.60;6.32;;;;;;;;;;5052442;28;20052;-42
2023/06/13 12:23:58;;;;;;;46.13;5.63;;;;;;;;;;5052077;28;20664;-42
2023/06/13 12:26:31;;;;;;;58.10;5.25;;;;;;;;;;5052226;28;20056;-42
2023/06/13 12:29:07;;;;;;;53.67;5.72;;;;;;;;;;5052448;28;20449;-42
2023/06/13 12:31:38;;;;;;;58.90;6.50;;;;;;;;;;5052042;28;20025;-42
2023/06/13 12:34:09;;;;;;;65.95;5.70;;;;;;;;;;5051789;28;20051;-42
2023/06/13 12:36:46;;;;;;;54.35;5.45;;;;;;;;;;5052237;28;20115;-42
2023/06/13 12:39:14;;;;;;;45.58;5.97;;;;;;;;;;5052000;28;20424;-42
2023/06/13 12:41:48;;;;;;;43.58;5.45;;;;;;;;;;5052000;28;20035;-44
2023/06/13 12:44:15;;;;;;;52.20;5.40;;;;;;;;;;5051957;28;20032;-42
2023/06/13 12:46:43;;;;;;;37.72;5.28;;;;;;;;;;5052013;28;20391;-40
2023/06/13 12:49:10;;;;;;;44.58;4.82;;;;;;;;;;5051932;28;20033;-40
2023/06/13 12:51:45;;;;;;;38.17;4.43;;;;;;;;;;5051940;28;20042;-40
2023/06/13 12:54:13;;;;;;;45.50;5.68;;;;;;;;;;5051345;28;20028;-39
2023/06/13 12:56:50;;;;;;;41.58;5.30;;;;;;;;;;5051861;28;20041;-40
2023/06/13 12:59:17;;;;;;;42.10;5.38;;;;;;;;;;5051532;28;20095;-40
2023/06/13 13:01:44;;;;;;;56.45;6.60;;;;;;;;;;5051812;28;20029;-40
2023/06/13 13:04:11;;;;;;;53.60;6.20;;;;;;;;;;5051644;28;20128;-40
2023/06/13 13:06:42;;;;;;;64.18;7.45;;;;;;;;;;5051664;28;20029;-40
2023/06/13 13:09:09;;;;;;;55.50;6.65;;;;;;;;;;5051640;28;20032;-40
2023/06/13 13:11:36;;;;;;;69.35;7.15;;;;;;;;;;5051637;28;20509;-41
2023/06/13 13:14:03;;;;;;;55.88;7.40;;;;;;;;;;5051492;28;20463;-40
2023/06/13 13:16:31;;;;;;;78.07;7.68;;;;;;;;;;5051557;28;20033;-40
2023/06/13 13:18:58;;;;;;;55.53;6.35;;;;;;;;;;5051342;28;20507;-40
2023/06/13 13:21:25;;;;;;;55.83;5.70;;;;;;;;;;5051598;28;20029;-40
2023/06/13 13:23:52;;;;;;;60.67;6.00;;;;;;;;;;5051422;28;20029;-40
2023/06/13 13:26:19;;;;;;;60.22;7.57;;;;;;;;;;5051405;28;20398;-40
2023/06/13 13:28:46;;;;;;;65.72;7.15;;;;;;;;;;5051401;28;20025;-40
2023/06/13 13:31:14;;;;;;;51.92;5.25;;;;;;;;;;5051296;28;20052;-40
2023/06/13 13:33:41;;;;;;;47.15;5.03;;;;;;;;;;5051064;28;20045;-40
2023/06/13 13:36:08;;;;;;;46.75;5.50;;;;;;;;;;5051332;28;20513;-40
2023/06/13 13:38:35;;;;;;;48.88;4.88;;;;;;;;;;5051362;28;20032;-40
2023/06/13 13:41:02;;;;;;;39.38;4.20;;;;;;;;;;5051375;28;20025;-40
2023/06/13 13:43:29;;;;;;;33.63;4.22;;;;;;;;;;5051239;28;20036;-42
2023/06/13 13:45:56;;;;;;;33.45;4.22;;;;;;;;;;5051305;28;20025;-42
2023/06/13 13:48:24;;;;;;;31.10;4.03;;;;;;;;;;5051251;28;20021;-42
2023/06/13 13:50:51;;;;;;;26.10;3.38;;;;;;;;;;5051069;28;20410;-42
2023/06/13 13:53:18;;;;;;;31.95;3.83;;;;;;;;;;5051076;28;20466;-42
2023/06/13 13:55:45;;;;;;;56.47;4.97;;;;;;;;;;5051111;28;20060;-42
2023/06/13 13:58:12;;;;;;;23.58;3.38;;;;;;;;;;5033111;28;20394;-42
2023/06/13 14:00:39;;;;;;;24.70;4.13;;;;;;;;;;5050983;28;20536;-42
2023/06/13 14:03:06;;;;;;;30.20;3.42;;;;;;;;;;5051052;28;20076;-42
2023/06/13 14:05:33;;;;;;;33.00;3.58;;;;;;;;;;5051419;28;20029;-42
2023/06/13 14:08:00;;;;;;;34.47;3.25;;;;;;;;;;5055027;28;20768;-42
2023/06/13 14:10:27;;;;;;;28.83;3.03;;;;;;;;;;5054919;28;20116;-45
2023/06/13 14:12:54;;;;;;;28.65;3.60;;;;;;;;;;5054844;28;20059;-42
2023/06/13 14:15:21;;;;;;;27.40;3.28;;;;;;;;;;5054898;28;20425;-42
2023/06/13 14:17:48;;;;;;;22.42;3.30;;;;;;;;;;5054872;28;20032;-42
2023/06/13 14:20:16;;;;;;;33.13;3.33;;;;;;;;;;5054662;28;20037;-42
2023/06/13 14:22:43;;;;;;;18.15;2.75;;;;;;;;;;5054717;28;20078;-42
2023/06/13 14:25:10;;;;;;;19.25;2.83;;;;;;;;;;5054658;28;20036;-42
2023/06/13 14:27:37;;;;;;;28.58;3.42;;;;;;;;;;5054655;28;20398;-43
2023/06/13 14:30:06;;;;;;;23.13;2.58;;;;;;;;;;5054615;28;20044;-42
2023/06/13 14:32:33;;;;;;;24.85;2.75;;;;;;;;;;5054516;28;20036;-42
2023/06/13 14:35:00;;;;;;;30.90;2.90;;;;;;;;;;5054029;28;20427;-43
2023/06/13 14:37:27;;;;;;;24.42;3.25;;;;;;;;;;5054586;28;20032;-42
2023/06/13 14:39:54;;;;;;;25.80;4.10;;;;;;;;;;5054319;28;20723;-42
2023/06/13 14:42:21;;;;;;;18.02;3.53;;;;;;;;;;5054254;28;20029;-43